sensor_id;sensor_type;location;lat;lon;timestamp;temperature;humidity
8862;DHT22;4799;50.996;4.754;2023-12-22T00:01:13;9.60;99.90
8862;DHT22;4799;50.996;4.754;2023-12-22T00:03:43;9.50;99.90
8862;DHT22;4799;50.996;4.754;2023-12-22T00:06:12;9.50;99.90
8862;DHT22;4799;50.996;4.754;2023-12-22T00:08:38;9.50;99.90
8862;DHT22;4799;50.996;4.754;2023-12-22T00:11:04;9.50;99.90
8862;DHT22;4799;50.996;4.754;2023-12-22T00:13:30;9.60;99.90
8862;DHT22;4799;50.996;4.754;2023-12-22T00:15:55;9.60;99.90
8862;DHT22;4799;50.996;4.754;2023-12-22T00:18:21;9.50;99.90
8862;DHT22;4799;50.996;4.754;2023-12-22T00:20:47;9.60;99.90
8862;DHT22;4799;50.996;4.754;2023-12-22T00:23:13;9.60;99.90
8862;DHT22;4799;50.996;4.754;2023-12-22T00:25:38;9.60;99.90
8862;DHT22;4799;50.996;4.754;2023-12-22T00:28:04;9.60;99.90
8862;DHT22;4799;50.996;4.754;2023-12-22T00:30:30;9.60;99.90
8862;DHT22;4799;50.996;4.754;2023-12-22T00:32:55;9.70;99.90
8862;DHT22;4799;50.996;4.754;2023-12-22T00:35:21;9.70;99.90
8862;DHT22;4799;50.996;4.754;2023-12-22T00:37:47;9.70;99.90
8862;DHT22;4799;50.996;4.754;2023-12-22T00:40:12;9.70;99.90
8862;DHT22;4799;50.996;4.754;2023-12-22T00:42:38;9.70;99.90
8862;DHT22;4799;50.996;4.754;2023-12-22T00:45:05;9.80;99.90
8862;DHT22;4799;50.996;4.754;2023-12-22T00:47:30;9.80;99.90
8862;DHT22;4799;50.996;4.754;2023-12-22T00:49:56;9.80;99.90
8862;DHT22;4799;50.996;4.754;2023-12-22T00:52:22;9.80;99.90
8862;DHT22;4799;50.996;4.754;2023-12-22T00:54:48;9.80;99.90
8862;DHT22;4799;50.996;4.754;2023-12-22T00:57:14;9.80;99.90
8862;DHT22;4799;50.996;4.754;2023-12-22T00:59:40;9.80;99.90
8862;DHT22;4799;50.996;4.754;2023-12-22T01:02:14;9.80;99.90
8862;DHT22;4799;50.996;4.754;2023-12-22T01:04:39;9.80;99.90
8862;DHT22;4799;50.996;4.754;2023-12-22T01:07:07;9.90;99.90
8862;DHT22;4799;50.996;4.754;2023-12-22T01:09:33;9.80;99.90
8862;DHT22;4799;50.996;4.754;2023-12-22T01:11:59;9.80;99.90
8862;DHT22;4799;50.996;4.754;2023-12-22T01:14:28;9.80;99.90
8862;DHT22;4799;50.996;4.754;2023-12-22T01:16:54;9.80;99.90
8862;DHT22;4799;50.996;4.754;2023-12-22T01:19:19;9.80;99.90
8862;DHT22;4799;50.996;4.754;2023-12-22T01:21:45;9.80;99.90
8862;DHT22;4799;50.996;4.754;2023-12-22T01:24:11;9.70;99.90
8862;DHT22;4799;50.996;4.754;2023-12-22T01:26:37;9.70;99.90
8862;DHT22;4799;50.996;4.754;2023-12-22T01:29:03;9.80;99.90
8862;DHT22;4799;50.996;4.754;2023-12-22T01:31:29;9.80;99.90
8862;DHT22;4799;50.996;4.754;2023-12-22T01:33:54;9.70;99.90
8862;DHT22;4799;50.996;4.754;2023-12-22T01:36:20;9.50;99.90
8862;DHT22;4799;50.996;4.754;2023-12-22T01:38:46;9.30;99.90
8862;DHT22;4799;50.996;4.754;2023-12-22T01:41:12;9.00;99.90
8862;DHT22;4799;50.996;4.754;2023-12-22T01:43:37;8.90;99.90
8862;DHT22;4799;50.996;4.754;2023-12-22T01:46:03;8.80;99.90
8862;DHT22;4799;50.996;4.754;2023-12-22T01:48:30;8.70;99.90
8862;DHT22;4799;50.996;4.754;2023-12-22T01:50:56;8.70;99.90
8862;DHT22;4799;50.996;4.754;2023-12-22T01:53:25;8.60;99.90
8862;DHT22;4799;50.996;4.754;2023-12-22T01:55:53;8.60;99.90
8862;DHT22;4799;50.996;4.754;2023-12-22T01:58:20;8.60;99.90
8862;DHT22;4799;50.996;4.754;2023-12-22T02:00:47;8.60;99.90
8862;DHT22;4799;50.996;4.754;2023-12-22T02:03:14;8.60;99.90
8862;DHT22;4799;50.996;4.754;2023-12-22T02:05:47;8.60;99.90
8862;DHT22;4799;50.996;4.754;2023-12-22T02:08:12;8.70;99.90
8862;DHT22;4799;50.996;4.754;2023-12-22T02:10:39;8.70;99.90
8862;DHT22;4799;50.996;4.754;2023-12-22T02:13:05;8.70;99.90
8862;DHT22;4799;50.996;4.754;2023-12-22T02:15:31;8.70;99.90
8862;DHT22;4799;50.996;4.754;2023-12-22T02:20:32;8.80;99.90
8862;DHT22;4799;50.996;4.754;2023-12-22T02:22:58;8.70;99.90
8862;DHT22;4799;50.996;4.754;2023-12-22T02:25:23;8.70;99.90
8862;DHT22;4799;50.996;4.754;2023-12-22T02:27:53;8.70;99.90
8862;DHT22;4799;50.996;4.754;2023-12-22T02:33:06;8.70;99.90
8862;DHT22;4799;50.996;4.754;2023-12-22T02:35:36;8.70;99.90
8862;DHT22;4799;50.996;4.754;2023-12-22T02:38:03;8.70;99.90
8862;DHT22;4799;50.996;4.754;2023-12-22T02:40:30;8.70;99.90
8862;DHT22;4799;50.996;4.754;2023-12-22T02:42:56;8.80;99.90
8862;DHT22;4799;50.996;4.754;2023-12-22T02:45:22;8.80;99.90
8862;DHT22;4799;50.996;4.754;2023-12-22T02:47:48;8.80;99.90
8862;DHT22;4799;50.996;4.754;2023-12-22T02:50:15;8.80;99.90
8862;DHT22;4799;50.996;4.754;2023-12-22T02:52:42;8.80;99.90
8862;DHT22;4799;50.996;4.754;2023-12-22T02:55:08;8.90;99.90
8862;DHT22;4799;50.996;4.754;2023-12-22T02:57:34;8.90;99.90
8862;DHT22;4799;50.996;4.754;2023-12-22T03:00:00;8.90;99.90
8862;DHT22;4799;50.996;4.754;2023-12-22T03:02:26;8.90;99.90
8862;DHT22;4799;50.996;4.754;2023-12-22T03:04:51;9.00;99.90
8862;DHT22;4799;50.996;4.754;2023-12-22T03:07:17;9.00;99.90
8862;DHT22;4799;50.996;4.754;2023-12-22T03:09:43;9.00;99.90
8862;DHT22;4799;50.996;4.754;2023-12-22T03:12:09;9.00;99.90
8862;DHT22;4799;50.996;4.754;2023-12-22T03:14:36;9.00;99.90
8862;DHT22;4799;50.996;4.754;2023-12-22T03:17:03;8.90;99.90
8862;DHT22;4799;50.996;4.754;2023-12-22T03:19:30;8.90;99.90
8862;DHT22;4799;50.996;4.754;2023-12-22T03:21:56;9.00;99.90
8862;DHT22;4799;50.996;4.754;2023-12-22T03:24:22;9.10;99.90
8862;DHT22;4799;50.996;4.754;2023-12-22T03:26:50;9.10;99.90
8862;DHT22;4799;50.996;4.754;2023-12-22T03:29:16;9.10;99.90
8862;DHT22;4799;50.996;4.754;2023-12-22T03:31:43;9.10;99.90
8862;DHT22;4799;50.996;4.754;2023-12-22T03:34:09;9.10;99.90
8862;DHT22;4799;50.996;4.754;2023-12-22T03:36:35;9.20;99.90
8862;DHT22;4799;50.996;4.754;2023-12-22T03:39:01;9.20;99.90
8862;DHT22;4799;50.996;4.754;2023-12-22T03:41:26;9.20;99.90
8862;DHT22;4799;50.996;4.754;2023-12-22T03:43:52;9.20;99.90
8862;DHT22;4799;50.996;4.754;2023-12-22T03:46:18;9.30;99.90
8862;DHT22;4799;50.996;4.754;2023-12-22T03:48:44;9.30;99.90
8862;DHT22;4799;50.996;4.754;2023-12-22T03:51:10;9.30;99.90
8862;DHT22;4799;50.996;4.754;2023-12-22T03:53:40;9.30;99.90
8862;DHT22;4799;50.996;4.754;2023-12-22T03:56:08;9.30;99.90
8862;DHT22;4799;50.996;4.754;2023-12-22T03:58:35;9.30;99.90
8862;DHT22;4799;50.996;4.754;2023-12-22T04:01:01;9.30;99.90
8862;DHT22;4799;50.996;4.754;2023-12-22T04:03:27;9.30;99.90
8862;DHT22;4799;50.996;4.754;2023-12-22T04:05:52;9.30;99.90
8862;DHT22;4799;50.996;4.754;2023-12-22T04:08:18;9.40;99.90
8862;DHT22;4799;50.996;4.754;2023-12-22T04:10:45;9.40;99.90
8862;DHT22;4799;50.996;4.754;2023-12-22T04:13:11;9.40;99.90
8862;DHT22;4799;50.996;4.754;2023-12-22T04:15:37;9.40;99.90
8862;DHT22;4799;50.996;4.754;2023-12-22T04:18:03;9.40;99.90
8862;DHT22;4799;50.996;4.754;2023-12-22T04:20:29;9.40;99.90
8862;DHT22;4799;50.996;4.754;2023-12-22T04:22:54;9.40;99.90
8862;DHT22;4799;50.996;4.754;2023-12-22T04:25:20;9.40;99.90
8862;DHT22;4799;50.996;4.754;2023-12-22T04:27:48;9.40;99.90
8862;DHT22;4799;50.996;4.754;2023-12-22T04:30:15;9.40;99.90
8862;DHT22;4799;50.996;4.754;2023-12-22T04:32:41;9.40;99.90
8862;DHT22;4799;50.996;4.754;2023-12-22T04:35:07;9.40;99.90
8862;DHT22;4799;50.996;4.754;2023-12-22T04:37:32;9.40;99.90
8862;DHT22;4799;50.996;4.754;2023-12-22T04:39:58;9.30;99.90
8862;DHT22;4799;50.996;4.754;2023-12-22T04:42:24;9.30;99.90
8862;DHT22;4799;50.996;4.754;2023-12-22T04:44:51;9.30;99.90
8862;DHT22;4799;50.996;4.754;2023-12-22T04:47:17;9.30;99.90
8862;DHT22;4799;50.996;4.754;2023-12-22T04:49:43;9.30;99.90
8862;DHT22;4799;50.996;4.754;2023-12-22T04:52:09;9.30;99.90
8862;DHT22;4799;50.996;4.754;2023-12-22T04:54:35;9.30;99.90
8862;DHT22;4799;50.996;4.754;2023-12-22T04:57:01;9.30;99.90
8862;DHT22;4799;50.996;4.754;2023-12-22T04:59:26;9.30;99.90
8862;DHT22;4799;50.996;4.754;2023-12-22T05:01:52;9.20;99.90
8862;DHT22;4799;50.996;4.754;2023-12-22T05:04:18;9.20;99.90
8862;DHT22;4799;50.996;4.754;2023-12-22T05:06:43;9.10;99.90
8862;DHT22;4799;50.996;4.754;2023-12-22T05:09:11;9.10;99.90
8862;DHT22;4799;50.996;4.754;2023-12-22T05:11:38;9.10;99.90
8862;DHT22;4799;50.996;4.754;2023-12-22T05:14:04;9.10;99.90
8862;DHT22;4799;50.996;4.754;2023-12-22T05:16:29;9.10;99.90
8862;DHT22;4799;50.996;4.754;2023-12-22T05:18:57;9.00;99.90
8862;DHT22;4799;50.996;4.754;2023-12-22T05:21:23;9.10;99.90
8862;DHT22;4799;50.996;4.754;2023-12-22T05:23:49;9.10;99.90
8862;DHT22;4799;50.996;4.754;2023-12-22T05:26:19;9.00;99.90
8862;DHT22;4799;50.996;4.754;2023-12-22T05:28:45;9.00;99.90
8862;DHT22;4799;50.996;4.754;2023-12-22T05:31:11;9.00;99.90
8862;DHT22;4799;50.996;4.754;2023-12-22T05:33:36;9.10;99.90
8862;DHT22;4799;50.996;4.754;2023-12-22T05:36:02;9.10;99.90
8862;DHT22;4799;50.996;4.754;2023-12-22T05:38:28;9.10;99.90
8862;DHT22;4799;50.996;4.754;2023-12-22T05:40:54;9.10;99.90
8862;DHT22;4799;50.996;4.754;2023-12-22T05:43:20;9.10;99.90
8862;DHT22;4799;50.996;4.754;2023-12-22T05:45:46;9.10;99.90
8862;DHT22;4799;50.996;4.754;2023-12-22T05:48:11;9.10;99.90
8862;DHT22;4799;50.996;4.754;2023-12-22T05:50:37;9.10;99.90
8862;DHT22;4799;50.996;4.754;2023-12-22T05:53:03;9.10;99.90
8862;DHT22;4799;50.996;4.754;2023-12-22T05:55:28;9.10;99.90
8862;DHT22;4799;50.996;4.754;2023-12-22T05:57:55;9.10;99.90
8862;DHT22;4799;50.996;4.754;2023-12-22T06:00:21;9.10;99.90
8862;DHT22;4799;50.996;4.754;2023-12-22T06:02:47;9.20;99.90
8862;DHT22;4799;50.996;4.754;2023-12-22T06:05:13;9.20;99.90
8862;DHT22;4799;50.996;4.754;2023-12-22T06:07:39;9.20;99.90
8862;DHT22;4799;50.996;4.754;2023-12-22T06:10:06;9.20;99.90
8862;DHT22;4799;50.996;4.754;2023-12-22T06:12:32;9.20;99.90
8862;DHT22;4799;50.996;4.754;2023-12-22T06:14:58;9.20;99.90
8862;DHT22;4799;50.996;4.754;2023-12-22T06:17:24;9.20;99.90
8862;DHT22;4799;50.996;4.754;2023-12-22T06:19:49;9.20;99.90
8862;DHT22;4799;50.996;4.754;2023-12-22T06:22:15;9.20;99.90
8862;DHT22;4799;50.996;4.754;2023-12-22T06:24:41;9.20;99.90
8862;DHT22;4799;50.996;4.754;2023-12-22T06:27:06;9.20;99.90
8862;DHT22;4799;50.996;4.754;2023-12-22T06:29:33;9.20;99.90
8862;DHT22;4799;50.996;4.754;2023-12-22T06:31:59;9.20;99.90
8862;DHT22;4799;50.996;4.754;2023-12-22T06:34:24;9.20;99.90
8862;DHT22;4799;50.996;4.754;2023-12-22T06:36:51;9.10;99.90
8862;DHT22;4799;50.996;4.754;2023-12-22T06:39:17;9.10;99.90
8862;DHT22;4799;50.996;4.754;2023-12-22T06:41:42;9.10;99.90
8862;DHT22;4799;50.996;4.754;2023-12-22T06:44:08;9.10;99.90
8862;DHT22;4799;50.996;4.754;2023-12-22T06:46:36;9.10;99.90
8862;DHT22;4799;50.996;4.754;2023-12-22T06:49:02;9.10;99.90
8862;DHT22;4799;50.996;4.754;2023-12-22T06:51:29;9.10;99.90
8862;DHT22;4799;50.996;4.754;2023-12-22T06:53:56;9.10;99.90
8862;DHT22;4799;50.996;4.754;2023-12-22T06:56:24;9.10;99.90
8862;DHT22;4799;50.996;4.754;2023-12-22T06:58:51;9.10;99.90
8862;DHT22;4799;50.996;4.754;2023-12-22T07:01:18;9.10;99.90
8862;DHT22;4799;50.996;4.754;2023-12-22T07:03:46;9.10;99.90
8862;DHT22;4799;50.996;4.754;2023-12-22T07:06:11;9.10;99.90
8862;DHT22;4799;50.996;4.754;2023-12-22T07:08:37;9.10;99.90
8862;DHT22;4799;50.996;4.754;2023-12-22T07:11:04;9.00;99.90
8862;DHT22;4799;50.996;4.754;2023-12-22T07:13:30;9.00;99.90
8862;DHT22;4799;50.996;4.754;2023-12-22T07:15:55;9.00;99.90
8862;DHT22;4799;50.996;4.754;2023-12-22T07:18:21;9.00;99.90
8862;DHT22;4799;50.996;4.754;2023-12-22T07:20:47;8.90;99.90
8862;DHT22;4799;50.996;4.754;2023-12-22T07:23:12;8.90;99.90
8862;DHT22;4799;50.996;4.754;2023-12-22T07:25:38;8.80;99.90
8862;DHT22;4799;50.996;4.754;2023-12-22T07:28:05;8.80;99.90
8862;DHT22;4799;50.996;4.754;2023-12-22T07:30:30;8.90;99.90
8862;DHT22;4799;50.996;4.754;2023-12-22T07:32:56;8.80;99.90
8862;DHT22;4799;50.996;4.754;2023-12-22T07:35:22;8.80;99.90
8862;DHT22;4799;50.996;4.754;2023-12-22T07:37:48;8.80;99.90
8862;DHT22;4799;50.996;4.754;2023-12-22T07:40:13;8.80;99.90
8862;DHT22;4799;50.996;4.754;2023-12-22T07:42:39;8.80;99.90
8862;DHT22;4799;50.996;4.754;2023-12-22T07:45:06;8.80;99.90
8862;DHT22;4799;50.996;4.754;2023-12-22T07:47:32;8.80;99.90
8862;DHT22;4799;50.996;4.754;2023-12-22T07:49:58;8.80;99.90
8862;DHT22;4799;50.996;4.754;2023-12-22T07:52:24;8.70;99.90
8862;DHT22;4799;50.996;4.754;2023-12-22T07:54:49;8.70;99.90
8862;DHT22;4799;50.996;4.754;2023-12-22T07:57:17;8.70;99.90
8862;DHT22;4799;50.996;4.754;2023-12-22T07:59:42;8.70;99.90
8862;DHT22;4799;50.996;4.754;2023-12-22T08:02:08;8.70;99.90
8862;DHT22;4799;50.996;4.754;2023-12-22T08:04:34;8.70;99.90
8862;DHT22;4799;50.996;4.754;2023-12-22T08:06:59;8.70;99.90
8862;DHT22;4799;50.996;4.754;2023-12-22T08:09:25;8.70;99.90
8862;DHT22;4799;50.996;4.754;2023-12-22T08:11:51;8.70;99.90
8862;DHT22;4799;50.996;4.754;2023-12-22T08:14:19;8.70;99.90
8862;DHT22;4799;50.996;4.754;2023-12-22T08:16:44;8.70;99.90
8862;DHT22;4799;50.996;4.754;2023-12-22T08:19:10;8.70;99.90
8862;DHT22;4799;50.996;4.754;2023-12-22T08:21:36;8.70;99.90
8862;DHT22;4799;50.996;4.754;2023-12-22T08:24:02;8.70;99.90
8862;DHT22;4799;50.996;4.754;2023-12-22T08:26:27;8.70;99.90
8862;DHT22;4799;50.996;4.754;2023-12-22T08:28:53;8.70;99.90
8862;DHT22;4799;50.996;4.754;2023-12-22T08:31:19;8.70;99.90
8862;DHT22;4799;50.996;4.754;2023-12-22T08:33:45;8.70;99.90
8862;DHT22;4799;50.996;4.754;2023-12-22T08:36:11;8.70;99.90
8862;DHT22;4799;50.996;4.754;2023-12-22T08:38:37;8.70;99.90
8862;DHT22;4799;50.996;4.754;2023-12-22T08:41:09;8.80;99.90
8862;DHT22;4799;50.996;4.754;2023-12-22T08:43:36;8.80;99.90
8862;DHT22;4799;50.996;4.754;2023-12-22T08:46:03;8.80;99.90
8862;DHT22;4799;50.996;4.754;2023-12-22T08:48:29;8.80;99.90
8862;DHT22;4799;50.996;4.754;2023-12-22T08:50:55;8.80;99.90
8862;DHT22;4799;50.996;4.754;2023-12-22T08:53:21;8.90;99.90
8862;DHT22;4799;50.996;4.754;2023-12-22T08:55:47;8.90;99.90
8862;DHT22;4799;50.996;4.754;2023-12-22T08:58:12;8.90;99.90
8862;DHT22;4799;50.996;4.754;2023-12-22T09:00:38;9.00;99.90
8862;DHT22;4799;50.996;4.754;2023-12-22T09:03:04;9.00;99.90
8862;DHT22;4799;50.996;4.754;2023-12-22T09:05:30;9.10;99.90
8862;DHT22;4799;50.996;4.754;2023-12-22T09:07:58;9.10;99.90
8862;DHT22;4799;50.996;4.754;2023-12-22T09:10:24;9.10;99.90
8862;DHT22;4799;50.996;4.754;2023-12-22T09:12:50;9.20;99.90
8862;DHT22;4799;50.996;4.754;2023-12-22T09:15:16;9.30;99.90
8862;DHT22;4799;50.996;4.754;2023-12-22T09:17:42;9.30;99.90
8862;DHT22;4799;50.996;4.754;2023-12-22T09:20:08;9.30;99.90
8862;DHT22;4799;50.996;4.754;2023-12-22T09:22:34;9.30;99.90
8862;DHT22;4799;50.996;4.754;2023-12-22T09:24:59;9.40;99.90
8862;DHT22;4799;50.996;4.754;2023-12-22T09:27:25;9.40;99.90
8862;DHT22;4799;50.996;4.754;2023-12-22T09:29:55;9.40;99.90
8862;DHT22;4799;50.996;4.754;2023-12-22T09:32:21;9.40;99.90
8862;DHT22;4799;50.996;4.754;2023-12-22T09:34:47;9.50;99.90
8862;DHT22;4799;50.996;4.754;2023-12-22T09:37:12;9.50;99.90
8862;DHT22;4799;50.996;4.754;2023-12-22T09:39:38;9.50;99.90
8862;DHT22;4799;50.996;4.754;2023-12-22T09:42:05;9.50;99.90
8862;DHT22;4799;50.996;4.754;2023-12-22T09:44:32;9.50;99.90
8862;DHT22;4799;50.996;4.754;2023-12-22T09:46:59;9.50;99.90
8862;DHT22;4799;50.996;4.754;2023-12-22T09:49:28;9.50;99.90
8862;DHT22;4799;50.996;4.754;2023-12-22T09:51:55;9.50;99.90
8862;DHT22;4799;50.996;4.754;2023-12-22T09:54:22;9.50;99.90
8862;DHT22;4799;50.996;4.754;2023-12-22T09:56:49;9.50;99.90
8862;DHT22;4799;50.996;4.754;2023-12-22T09:59:17;9.60;99.90
8862;DHT22;4799;50.996;4.754;2023-12-22T10:01:44;9.60;99.90
8862;DHT22;4799;50.996;4.754;2023-12-22T10:04:13;9.70;99.90
8862;DHT22;4799;50.996;4.754;2023-12-22T10:06:40;9.70;99.90
8862;DHT22;4799;50.996;4.754;2023-12-22T10:09:06;9.70;99.90
8862;DHT22;4799;50.996;4.754;2023-12-22T10:11:35;9.80;99.90
8862;DHT22;4799;50.996;4.754;2023-12-22T10:14:05;9.80;99.90
8862;DHT22;4799;50.996;4.754;2023-12-22T10:16:31;9.80;99.90
8862;DHT22;4799;50.996;4.754;2023-12-22T10:18:59;9.90;99.90
8862;DHT22;4799;50.996;4.754;2023-12-22T10:21:25;9.90;99.90
8862;DHT22;4799;50.996;4.754;2023-12-22T10:23:51;9.90;99.90
8862;DHT22;4799;50.996;4.754;2023-12-22T10:26:17;9.90;99.90
8862;DHT22;4799;50.996;4.754;2023-12-22T10:28:43;9.90;99.90
8862;DHT22;4799;50.996;4.754;2023-12-22T10:31:09;10.00;99.90
8862;DHT22;4799;50.996;4.754;2023-12-22T10:33:35;10.00;99.90
8862;DHT22;4799;50.996;4.754;2023-12-22T10:36:00;10.00;99.90
8862;DHT22;4799;50.996;4.754;2023-12-22T10:38:32;10.00;99.90
8862;DHT22;4799;50.996;4.754;2023-12-22T10:40:58;10.00;99.90
8862;DHT22;4799;50.996;4.754;2023-12-22T10:43:23;10.00;99.90
8862;DHT22;4799;50.996;4.754;2023-12-22T10:45:52;10.00;99.90
8862;DHT22;4799;50.996;4.754;2023-12-22T10:48:18;10.00;99.90
8862;DHT22;4799;50.996;4.754;2023-12-22T10:50:43;10.00;99.90
8862;DHT22;4799;50.996;4.754;2023-12-22T10:53:11;10.00;99.90
8862;DHT22;4799;50.996;4.754;2023-12-22T10:55:37;10.00;99.90
8862;DHT22;4799;50.996;4.754;2023-12-22T10:58:06;10.00;99.90
8862;DHT22;4799;50.996;4.754;2023-12-22T11:00:37;10.00;99.90
8862;DHT22;4799;50.996;4.754;2023-12-22T11:03:08;10.10;99.90
8862;DHT22;4799;50.996;4.754;2023-12-22T11:05:37;10.10;99.90
8862;DHT22;4799;50.996;4.754;2023-12-22T11:08:03;10.10;99.90
8862;DHT22;4799;50.996;4.754;2023-12-22T11:10:33;10.10;99.90
8862;DHT22;4799;50.996;4.754;2023-12-22T11:13:00;10.10;99.90
8862;DHT22;4799;50.996;4.754;2023-12-22T11:15:27;10.20;99.90
8862;DHT22;4799;50.996;4.754;2023-12-22T11:17:55;10.20;99.90
8862;DHT22;4799;50.996;4.754;2023-12-22T11:20:23;10.20;99.90
8862;DHT22;4799;50.996;4.754;2023-12-22T11:22:50;10.20;99.90
8862;DHT22;4799;50.996;4.754;2023-12-22T11:25:17;10.20;99.90
8862;DHT22;4799;50.996;4.754;2023-12-22T11:27:43;10.20;99.90
8862;DHT22;4799;50.996;4.754;2023-12-22T11:30:14;10.20;99.90
8862;DHT22;4799;50.996;4.754;2023-12-22T11:32:40;10.20;99.90
8862;DHT22;4799;50.996;4.754;2023-12-22T11:35:07;10.30;99.90
8862;DHT22;4799;50.996;4.754;2023-12-22T11:37:38;10.20;99.90
8862;DHT22;4799;50.996;4.754;2023-12-22T11:40:05;10.20;99.90
8862;DHT22;4799;50.996;4.754;2023-12-22T11:42:33;10.20;99.90
8862;DHT22;4799;50.996;4.754;2023-12-22T11:45:02;10.10;99.90
8862;DHT22;4799;50.996;4.754;2023-12-22T11:47:29;10.10;99.90
8862;DHT22;4799;50.996;4.754;2023-12-22T11:49:55;10.20;99.90
8862;DHT22;4799;50.996;4.754;2023-12-22T11:52:27;10.20;99.90
8862;DHT22;4799;50.996;4.754;2023-12-22T11:54:57;10.20;99.90
8862;DHT22;4799;50.996;4.754;2023-12-22T11:57:33;10.20;99.90
8862;DHT22;4799;50.996;4.754;2023-12-22T12:02:54;10.30;99.90
8862;DHT22;4799;50.996;4.754;2023-12-22T12:05:20;10.30;99.90
8862;DHT22;4799;50.996;4.754;2023-12-22T12:07:47;10.30;99.90
8862;DHT22;4799;50.996;4.754;2023-12-22T12:10:51;10.40;99.90
8862;DHT22;4799;50.996;4.754;2023-12-22T12:13:22;10.40;99.90
8862;DHT22;4799;50.996;4.754;2023-12-22T12:15:50;10.50;99.90
8862;DHT22;4799;50.996;4.754;2023-12-22T12:18:22;10.50;99.90
8862;DHT22;4799;50.996;4.754;2023-12-22T12:20:48;10.50;99.90
8862;DHT22;4799;50.996;4.754;2023-12-22T12:23:15;10.50;99.90
8862;DHT22;4799;50.996;4.754;2023-12-22T12:25:42;10.60;99.90
8862;DHT22;4799;50.996;4.754;2023-12-22T12:28:08;10.60;99.90
8862;DHT22;4799;50.996;4.754;2023-12-22T12:30:36;10.60;99.90
8862;DHT22;4799;50.996;4.754;2023-12-22T12:33:09;10.70;99.90
8862;DHT22;4799;50.996;4.754;2023-12-22T12:35:37;10.70;99.90
8862;DHT22;4799;50.996;4.754;2023-12-22T12:38:04;10.70;99.90
8862;DHT22;4799;50.996;4.754;2023-12-22T12:40:30;10.70;99.90
8862;DHT22;4799;50.996;4.754;2023-12-22T12:42:58;10.80;99.90
8862;DHT22;4799;50.996;4.754;2023-12-22T12:45:24;10.80;99.90
8862;DHT22;4799;50.996;4.754;2023-12-22T12:48:01;10.80;99.90
8862;DHT22;4799;50.996;4.754;2023-12-22T12:50:28;10.80;99.90
8862;DHT22;4799;50.996;4.754;2023-12-22T12:52:54;10.90;99.90
8862;DHT22;4799;50.996;4.754;2023-12-22T12:55:23;10.90;99.90
8862;DHT22;4799;50.996;4.754;2023-12-22T12:57:54;10.90;99.90
8862;DHT22;4799;50.996;4.754;2023-12-22T13:00:31;10.90;99.90
8862;DHT22;4799;50.996;4.754;2023-12-22T13:03:07;10.90;99.90
8862;DHT22;4799;50.996;4.754;2023-12-22T13:05:33;10.90;99.90
8862;DHT22;4799;50.996;4.754;2023-12-22T13:08:12;10.90;99.90
8862;DHT22;4799;50.996;4.754;2023-12-22T13:10:39;10.90;99.90
8862;DHT22;4799;50.996;4.754;2023-12-22T13:13:05;10.90;99.90
8862;DHT22;4799;50.996;4.754;2023-12-22T13:15:31;10.90;99.90
8862;DHT22;4799;50.996;4.754;2023-12-22T13:17:57;10.90;99.90
8862;DHT22;4799;50.996;4.754;2023-12-22T13:20:23;10.90;99.90
8862;DHT22;4799;50.996;4.754;2023-12-22T13:22:49;10.90;99.90
8862;DHT22;4799;50.996;4.754;2023-12-22T13:25:15;10.90;99.90
8862;DHT22;4799;50.996;4.754;2023-12-22T13:27:45;11.00;99.90
8862;DHT22;4799;50.996;4.754;2023-12-22T13:30:13;11.00;99.90
8862;DHT22;4799;50.996;4.754;2023-12-22T13:32:39;11.00;99.90
8862;DHT22;4799;50.996;4.754;2023-12-22T13:35:05;11.00;99.90
8862;DHT22;4799;50.996;4.754;2023-12-22T13:37:31;11.00;99.90
8862;DHT22;4799;50.996;4.754;2023-12-22T13:39:56;11.00;99.90
8862;DHT22;4799;50.996;4.754;2023-12-22T13:42:25;11.00;99.90
8862;DHT22;4799;50.996;4.754;2023-12-22T13:44:51;11.00;99.90
8862;DHT22;4799;50.996;4.754;2023-12-22T13:47:19;11.00;99.90
8862;DHT22;4799;50.996;4.754;2023-12-22T13:49:48;11.00;99.90
8862;DHT22;4799;50.996;4.754;2023-12-22T13:52:30;11.00;99.90
8862;DHT22;4799;50.996;4.754;2023-12-22T13:55:09;10.90;99.90
8862;DHT22;4799;50.996;4.754;2023-12-22T13:57:35;11.00;99.90
8862;DHT22;4799;50.996;4.754;2023-12-22T14:00:00;10.90;99.90
8862;DHT22;4799;50.996;4.754;2023-12-22T14:02:26;10.90;99.90
8862;DHT22;4799;50.996;4.754;2023-12-22T14:04:52;10.90;99.90
8862;DHT22;4799;50.996;4.754;2023-12-22T14:07:18;10.90;99.90
8862;DHT22;4799;50.996;4.754;2023-12-22T14:09:44;10.90;99.90
8862;DHT22;4799;50.996;4.754;2023-12-22T14:12:10;10.90;99.90
8862;DHT22;4799;50.996;4.754;2023-12-22T14:14:35;10.90;99.90
8862;DHT22;4799;50.996;4.754;2023-12-22T14:17:01;10.90;99.90
8862;DHT22;4799;50.996;4.754;2023-12-22T14:19:27;10.90;99.90
8862;DHT22;4799;50.996;4.754;2023-12-22T14:21:52;10.90;99.90
8862;DHT22;4799;50.996;4.754;2023-12-22T14:24:18;10.90;99.90
8862;DHT22;4799;50.996;4.754;2023-12-22T14:26:56;11.00;99.90
8862;DHT22;4799;50.996;4.754;2023-12-22T14:29:22;11.00;99.90
8862;DHT22;4799;50.996;4.754;2023-12-22T14:31:51;10.90;99.90
8862;DHT22;4799;50.996;4.754;2023-12-22T14:34:18;11.00;99.90
8862;DHT22;4799;50.996;4.754;2023-12-22T14:36:44;10.90;99.90
8862;DHT22;4799;50.996;4.754;2023-12-22T14:39:10;10.90;99.90
8862;DHT22;4799;50.996;4.754;2023-12-22T14:41:40;10.90;99.90
8862;DHT22;4799;50.996;4.754;2023-12-22T14:44:06;11.00;99.90
8862;DHT22;4799;50.996;4.754;2023-12-22T14:46:32;11.00;99.90
8862;DHT22;4799;50.996;4.754;2023-12-22T14:48:57;11.00;99.90
8862;DHT22;4799;50.996;4.754;2023-12-22T14:51:23;11.00;99.90
8862;DHT22;4799;50.996;4.754;2023-12-22T14:53:49;11.00;99.90
8862;DHT22;4799;50.996;4.754;2023-12-22T14:56:14;11.00;99.90
8862;DHT22;4799;50.996;4.754;2023-12-22T14:58:40;11.00;99.90
8862;DHT22;4799;50.996;4.754;2023-12-22T15:01:12;11.10;99.90
8862;DHT22;4799;50.996;4.754;2023-12-22T15:03:38;11.10;99.90
8862;DHT22;4799;50.996;4.754;2023-12-22T15:06:04;11.10;99.90
8862;DHT22;4799;50.996;4.754;2023-12-22T15:08:30;11.20;99.90
8862;DHT22;4799;50.996;4.754;2023-12-22T15:10:56;11.10;99.90
8862;DHT22;4799;50.996;4.754;2023-12-22T15:13:21;11.10;99.90
8862;DHT22;4799;50.996;4.754;2023-12-22T15:15:47;11.20;99.90
8862;DHT22;4799;50.996;4.754;2023-12-22T15:18:13;11.20;99.90
8862;DHT22;4799;50.996;4.754;2023-12-22T15:20:39;11.20;99.90
8862;DHT22;4799;50.996;4.754;2023-12-22T15:23:04;11.20;99.90
8862;DHT22;4799;50.996;4.754;2023-12-22T15:25:31;11.20;99.90
8862;DHT22;4799;50.996;4.754;2023-12-22T15:27:56;11.20;99.90
8862;DHT22;4799;50.996;4.754;2023-12-22T15:30:22;11.20;99.90
8862;DHT22;4799;50.996;4.754;2023-12-22T15:32:49;11.20;99.90
8862;DHT22;4799;50.996;4.754;2023-12-22T15:35:14;11.20;99.90
8862;DHT22;4799;50.996;4.754;2023-12-22T15:37:40;11.20;99.90
8862;DHT22;4799;50.996;4.754;2023-12-22T15:40:07;11.30;99.90
8862;DHT22;4799;50.996;4.754;2023-12-22T15:42:35;11.30;99.90
8862;DHT22;4799;50.996;4.754;2023-12-22T15:45:01;11.30;99.90
8862;DHT22;4799;50.996;4.754;2023-12-22T15:47:27;11.30;99.90
8862;DHT22;4799;50.996;4.754;2023-12-22T15:49:52;11.30;99.90
8862;DHT22;4799;50.996;4.754;2023-12-22T15:52:18;11.20;99.90
8862;DHT22;4799;50.996;4.754;2023-12-22T15:54:44;11.20;99.90
8862;DHT22;4799;50.996;4.754;2023-12-22T15:57:10;11.20;99.90
8862;DHT22;4799;50.996;4.754;2023-12-22T15:59:36;11.20;99.90
8862;DHT22;4799;50.996;4.754;2023-12-22T16:02:02;11.20;99.90
8862;DHT22;4799;50.996;4.754;2023-12-22T16:04:28;11.30;99.90
8862;DHT22;4799;50.996;4.754;2023-12-22T16:06:54;11.30;99.90
8862;DHT22;4799;50.996;4.754;2023-12-22T16:09:20;11.20;99.90
8862;DHT22;4799;50.996;4.754;2023-12-22T16:11:46;11.30;99.90
8862;DHT22;4799;50.996;4.754;2023-12-22T16:14:12;11.30;99.90
8862;DHT22;4799;50.996;4.754;2023-12-22T16:16:39;11.30;99.90